Impacts METAR Board INFO
IDs:

KDFW - Dallas-Ft Worth Intl, TX, US

Updated at: 1519 UTC 16 Jan 2018
Potential Impact None Slight Moderate High
Time16/03Z 16/04Z 16/05Z 16/06Z 16/07Z 16/08Z 16/09Z 16/10Z 16/11Z 16/12Z 16/13Z 16/14Z 16/15Z
VIS9 9 7 8 9 10 9 10 10 10 10 10 10
CIG44 55 60 65 75 80 85 85 90 100 110 110 250
CoverOVCOVCOVCOVCOVCOVCOVCOVCOVCBKNBKNBKNBKN
FltCatVFRVFRVFRVFRVFRVFRVFRVFRVFRVFRVFRVFRVFR
WX-DZ -PL-PL-SN -PL-SN-SN---SN-SN----------
WDir1036010103603603501035036035034020
WSpd25 22 17 16 23 21 18 17 17 20 20 16 15
WGst31 28 24 26 -- -- 22 24 -- 24 -- -- --
Raw hourly METARs
KDFW 160253Z 01025G31KT 9SM -DZPL OVC044 02/M07 A3050 RMK AO2 PK WND 36031/0253 DZE28B49PLB26 SLP329 P0000 60000 T00221067 51051 $
KDFW 160353Z 36022G28KT 9SM -PL OVC055 01/M08 A3054 RMK AO2 PK WND 02029/0302 DZE08PLE08B29SNB23E48 SLP343 P0000 T00061078 $
KDFW 160453Z 01017G24KT 7SM -SNPL OVC060 00/M08 A3059 RMK AO2 PK WND 36030/0407 PRESRR SLP359 PLE08B52SNB24 P0000 T00001083 $
KDFW 160553Z 01016G26KT 8SM -SN FEW032 OVC065 M01/M09 A3062 RMK AO2 PK WND 01030/0513 SLP368 SNE09B20PLE09 P0000 60000 T10111089 10061 21011 401501011 51040 $
KDFW 160653Z 36023KT 9SM -SN FEW032 SCT055 OVC075 M02/M11 A3063 RMK AO2 PK WND 36027/0623 SNE09B33 SLP373 P0000 T10221106 $
KDFW 160753Z 36021KT 10SM OVC080 M03/M14 A3065 RMK AO2 PK WND 36028/0655 SNE13 SLP381 VIRGA OHD-E-S P0000 T10281139 $
KDFW 160853Z 35018G22KT 9SM -SN FEW070 OVC085 M04/M14 A3068 RMK AO2 PK WND 35027/0807 SNB53 SLP390 PCPN VRY LGT P0000 60000 T10391144 53020 $
KDFW 160953Z 01017G24KT 10SM -SN FEW065 OVC085 M04/M14 A3070 RMK AO2 SNE19B52 SLP398 PCPN VRY LGT P0000 T10441144 $
KDFW 161053Z 35017KT 10SM OVC090 M04/M14 A3070 RMK AO2 SNE32 SLP399 VIRGA OHD-E-S P0000 T10441144 $
KDFW 161153Z 36020G24KT 10SM BKN100 BKN250 M04/M15 A3072 RMK AO2 SLP408 60000 T10441150 11011 21044 53015 $
KDFW 161253Z 35020KT 10SM BKN110 BKN250 M05/M16 A3075 RMK AO2 SLP416 T10501156 $
KDFW 161353Z 34016KT 10SM FEW015 BKN110 M06/M16 A3076 RMK AO2 SLP422 T10561156 $
KDFW 161453Z COR 02015KT 10SM FEW020 SCT100 BKN250 M06/M14 A3080 RMK AO2 SLP434 T10611139 53024 $